KFMH

Cape Cod Coast Guard Air Station Airport

Falmouth, Massachusetts, USA
METAR KFMH 230055Z AUTO 22005KT 7SM -DZ FEW023 SCT035 OVC055 12/10 A3003 RMK AO2
Observed Flight Rules
May-23 @ 00:55 UTC (26 minutes ago) Visual Flight Rules
Wind Visibility Clouds Conditions
220° at 5 knots 7 miles
  • Few at 2,300' AGL
  • Scattered at 3,500' AGL
  • Overcast at 5,500' AGL
  • Light Drizzle
Temperatures Readings
Current 12°C / 54°F
Dewpoint 10°C / 50°F
Humidity 88%
Altimeter 30.03" Hg
Pressure 1017 hPa
Elevation 40
METAR KFMH 230055Z AUTO 22005KT 7SM -DZ FEW023 SCT035 OVC055 12/10 A3003 RMK AO2
Observed Flight Rules
May-23 @ 00:55 UTC
(26 minutes ago)
VFR
Wind Visibility
220° at 5 knots 7 miles
Clouds
  • Few at 2,300' AGL
  • Scattered at 3,500' AGL
  • Overcast at 5,500' AGL
Conditions
  • Light Drizzle
Temperature Dewpoint
12°C / 54°F 10°C / 50°F
Humidity Altimeter Pressure
88% 30.03" Hg 1017 hPa